sensor_id;sensor_type;location;lat;lon;timestamp;temperature;humidity
12303;DHT22;6214;48.012;7.862;2023-03-01T00:00:15;1.20;99.90
12303;DHT22;6214;48.012;7.862;2023-03-01T00:02:42;1.10;99.90
12303;DHT22;6214;48.012;7.862;2023-03-01T00:05:10;1.10;99.90
12303;DHT22;6214;48.012;7.862;2023-03-01T00:07:36;1.20;99.90
12303;DHT22;6214;48.012;7.862;2023-03-01T00:10:04;1.10;99.90
12303;DHT22;6214;48.012;7.862;2023-03-01T00:12:31;1.00;99.90
12303;DHT22;6214;48.012;7.862;2023-03-01T00:14:58;1.10;99.90
12303;DHT22;6214;48.012;7.862;2023-03-01T00:17:26;1.20;99.90
12303;DHT22;6214;48.012;7.862;2023-03-01T00:19:54;1.20;99.90
12303;DHT22;6214;48.012;7.862;2023-03-01T00:22:20;1.10;99.90
12303;DHT22;6214;48.012;7.862;2023-03-01T00:24:47;1.10;99.90
12303;DHT22;6214;48.012;7.862;2023-03-01T00:27:14;1.10;99.90
12303;DHT22;6214;48.012;7.862;2023-03-01T00:29:41;1.00;99.90
12303;DHT22;6214;48.012;7.862;2023-03-01T00:32:08;1.20;99.90
12303;DHT22;6214;48.012;7.862;2023-03-01T00:34:35;1.00;99.90
12303;DHT22;6214;48.012;7.862;2023-03-01T00:37:02;1.00;99.90
12303;DHT22;6214;48.012;7.862;2023-03-01T00:39:32;0.90;99.90
12303;DHT22;6214;48.012;7.862;2023-03-01T00:41:59;0.90;99.90
12303;DHT22;6214;48.012;7.862;2023-03-01T00:44:27;0.90;99.90
12303;DHT22;6214;48.012;7.862;2023-03-01T00:46:55;0.90;99.90
12303;DHT22;6214;48.012;7.862;2023-03-01T00:49:22;1.00;99.90
12303;DHT22;6214;48.012;7.862;2023-03-01T00:51:50;1.00;99.90
12303;DHT22;6214;48.012;7.862;2023-03-01T00:54:17;0.90;99.90
12303;DHT22;6214;48.012;7.862;2023-03-01T00:56:44;1.00;99.90
12303;DHT22;6214;48.012;7.862;2023-03-01T00:59:11;1.10;99.90
12303;DHT22;6214;48.012;7.862;2023-03-01T01:01:38;1.10;99.90
12303;DHT22;6214;48.012;7.862;2023-03-01T01:04:09;1.20;99.90
12303;DHT22;6214;48.012;7.862;2023-03-01T01:06:39;1.20;99.90
12303;DHT22;6214;48.012;7.862;2023-03-01T01:09:07;1.10;99.90
12303;DHT22;6214;48.012;7.862;2023-03-01T01:11:34;1.00;99.90
12303;DHT22;6214;48.012;7.862;2023-03-01T01:14:04;1.10;99.90
12303;DHT22;6214;48.012;7.862;2023-03-01T01:16:31;1.10;99.90
12303;DHT22;6214;48.012;7.862;2023-03-01T01:18:59;1.00;99.90
12303;DHT22;6214;48.012;7.862;2023-03-01T01:21:26;0.90;99.90
12303;DHT22;6214;48.012;7.862;2023-03-01T01:23:54;0.80;99.90
12303;DHT22;6214;48.012;7.862;2023-03-01T01:26:27;0.70;99.90
12303;DHT22;6214;48.012;7.862;2023-03-01T01:28:55;0.70;99.90
12303;DHT22;6214;48.012;7.862;2023-03-01T01:31:23;0.50;99.90
12303;DHT22;6214;48.012;7.862;2023-03-01T01:33:54;0.30;99.90
12303;DHT22;6214;48.012;7.862;2023-03-01T01:36:21;0.40;99.90
12303;DHT22;6214;48.012;7.862;2023-03-01T01:38:48;0.40;99.90
12303;DHT22;6214;48.012;7.862;2023-03-01T01:41:16;0.30;99.90
12303;DHT22;6214;48.012;7.862;2023-03-01T01:44:27;0.20;99.90
12303;DHT22;6214;48.012;7.862;2023-03-01T01:49:42;0.30;99.90
12303;DHT22;6214;48.012;7.862;2023-03-01T01:52:18;0.30;99.90
12303;DHT22;6214;48.012;7.862;2023-03-01T01:54:50;0.30;99.90
12303;DHT22;6214;48.012;7.862;2023-03-01T01:57:29;0.00;99.90
12303;DHT22;6214;48.012;7.862;2023-03-01T02:00:03;-0.20;99.90
12303;DHT22;6214;48.012;7.862;2023-03-01T02:02:31;0.00;99.90
12303;DHT22;6214;48.012;7.862;2023-03-01T02:05:08;0.10;99.90
12303;DHT22;6214;48.012;7.862;2023-03-01T02:07:38;0.00;99.90
12303;DHT22;6214;48.012;7.862;2023-03-01T02:10:06;0.10;99.90
12303;DHT22;6214;48.012;7.862;2023-03-01T02:12:34;0.20;99.90
12303;DHT22;6214;48.012;7.862;2023-03-01T02:15:02;0.30;99.90
12303;DHT22;6214;48.012;7.862;2023-03-01T02:17:29;0.30;99.90
12303;DHT22;6214;48.012;7.862;2023-03-01T02:22:57;0.50;99.90
12303;DHT22;6214;48.012;7.862;2023-03-01T02:26:07;0.50;99.90
12303;DHT22;6214;48.012;7.862;2023-03-01T02:28:40;0.40;99.90
12303;DHT22;6214;48.012;7.862;2023-03-01T02:31:11;0.30;99.90
12303;DHT22;6214;48.012;7.862;2023-03-01T02:34:00;0.20;99.90
12303;DHT22;6214;48.012;7.862;2023-03-01T02:36:46;0.10;99.90
12303;DHT22;6214;48.012;7.862;2023-03-01T02:39:18;-0.10;99.90
12303;DHT22;6214;48.012;7.862;2023-03-01T02:41:49;-0.10;99.90
12303;DHT22;6214;48.012;7.862;2023-03-01T02:44:16;0.00;99.90
12303;DHT22;6214;48.012;7.862;2023-03-01T02:46:47;0.00;99.90
12303;DHT22;6214;48.012;7.862;2023-03-01T02:49:21;0.00;99.90
12303;DHT22;6214;48.012;7.862;2023-03-01T02:57:40;-0.30;99.90
12303;DHT22;6214;48.012;7.862;2023-03-01T03:00:14;-0.30;99.90
12303;DHT22;6214;48.012;7.862;2023-03-01T03:02:50;-0.50;99.90
12303;DHT22;6214;48.012;7.862;2023-03-01T03:05:27;-0.50;99.90
12303;DHT22;6214;48.012;7.862;2023-03-01T03:07:56;-0.50;99.90
12303;DHT22;6214;48.012;7.862;2023-03-01T03:10:32;-0.50;99.90
12303;DHT22;6214;48.012;7.862;2023-03-01T03:13:07;-0.40;99.90
12303;DHT22;6214;48.012;7.862;2023-03-01T03:15:35;-0.40;99.90
12303;DHT22;6214;48.012;7.862;2023-03-01T03:18:11;-0.40;99.90
12303;DHT22;6214;48.012;7.862;2023-03-01T03:20:40;-0.30;99.90
12303;DHT22;6214;48.012;7.862;2023-03-01T03:23:07;-0.20;99.90
12303;DHT22;6214;48.012;7.862;2023-03-01T03:25:34;-0.20;99.90
12303;DHT22;6214;48.012;7.862;2023-03-01T03:28:06;-0.20;99.90
12303;DHT22;6214;48.012;7.862;2023-03-01T03:30:39;-0.20;99.90
12303;DHT22;6214;48.012;7.862;2023-03-01T03:33:06;-0.10;99.90
12303;DHT22;6214;48.012;7.862;2023-03-01T03:35:40;-0.30;99.90
12303;DHT22;6214;48.012;7.862;2023-03-01T03:38:10;-0.20;99.90
12303;DHT22;6214;48.012;7.862;2023-03-01T03:40:48;-0.20;99.90
12303;DHT22;6214;48.012;7.862;2023-03-01T03:43:21;-0.20;99.90
12303;DHT22;6214;48.012;7.862;2023-03-01T03:45:50;0.00;99.90
12303;DHT22;6214;48.012;7.862;2023-03-01T03:48:18;0.20;99.90
12303;DHT22;6214;48.012;7.862;2023-03-01T03:50:50;0.10;99.90
12303;DHT22;6214;48.012;7.862;2023-03-01T03:53:19;0.10;99.90
12303;DHT22;6214;48.012;7.862;2023-03-01T03:55:46;0.10;99.90
12303;DHT22;6214;48.012;7.862;2023-03-01T03:58:16;0.20;99.90
12303;DHT22;6214;48.012;7.862;2023-03-01T04:00:45;0.10;99.90
12303;DHT22;6214;48.012;7.862;2023-03-01T04:03:14;0.10;99.90
12303;DHT22;6214;48.012;7.862;2023-03-01T04:05:42;0.20;99.90
12303;DHT22;6214;48.012;7.862;2023-03-01T04:08:09;0.30;99.90
12303;DHT22;6214;48.012;7.862;2023-03-01T04:10:37;0.40;99.90
12303;DHT22;6214;48.012;7.862;2023-03-01T04:13:06;0.40;99.90
12303;DHT22;6214;48.012;7.862;2023-03-01T04:15:33;0.50;99.90
12303;DHT22;6214;48.012;7.862;2023-03-01T04:18:01;0.50;99.90
12303;DHT22;6214;48.012;7.862;2023-03-01T04:20:30;0.60;99.90
12303;DHT22;6214;48.012;7.862;2023-03-01T04:23:13;0.60;99.90
12303;DHT22;6214;48.012;7.862;2023-03-01T04:25:45;0.50;99.90
12303;DHT22;6214;48.012;7.862;2023-03-01T04:28:12;0.60;99.90
12303;DHT22;6214;48.012;7.862;2023-03-01T04:30:39;0.60;99.90
12303;DHT22;6214;48.012;7.862;2023-03-01T04:33:08;0.60;99.90
12303;DHT22;6214;48.012;7.862;2023-03-01T04:35:36;0.60;99.90
12303;DHT22;6214;48.012;7.862;2023-03-01T04:38:04;0.60;99.90
12303;DHT22;6214;48.012;7.862;2023-03-01T04:40:32;0.70;99.90
12303;DHT22;6214;48.012;7.862;2023-03-01T04:42:59;0.70;99.90
12303;DHT22;6214;48.012;7.862;2023-03-01T04:45:26;0.70;99.90
12303;DHT22;6214;48.012;7.862;2023-03-01T04:47:54;0.60;99.90
12303;DHT22;6214;48.012;7.862;2023-03-01T04:50:21;0.60;99.90
12303;DHT22;6214;48.012;7.862;2023-03-01T04:52:50;0.40;99.90
12303;DHT22;6214;48.012;7.862;2023-03-01T04:55:18;0.50;99.90
12303;DHT22;6214;48.012;7.862;2023-03-01T04:57:45;0.50;99.90
12303;DHT22;6214;48.012;7.862;2023-03-01T05:00:14;0.40;99.90
12303;DHT22;6214;48.012;7.862;2023-03-01T05:02:54;0.50;99.90
12303;DHT22;6214;48.012;7.862;2023-03-01T05:05:31;0.40;99.90
12303;DHT22;6214;48.012;7.862;2023-03-01T05:08:02;0.50;99.90
12303;DHT22;6214;48.012;7.862;2023-03-01T05:10:31;0.70;99.90
12303;DHT22;6214;48.012;7.862;2023-03-01T05:12:59;0.70;99.90
12303;DHT22;6214;48.012;7.862;2023-03-01T05:15:27;0.80;99.90
12303;DHT22;6214;48.012;7.862;2023-03-01T05:17:56;0.80;99.90
12303;DHT22;6214;48.012;7.862;2023-03-01T05:20:26;0.90;99.90
12303;DHT22;6214;48.012;7.862;2023-03-01T05:22:59;0.70;99.90
12303;DHT22;6214;48.012;7.862;2023-03-01T05:25:26;0.50;99.90
12303;DHT22;6214;48.012;7.862;2023-03-01T05:27:54;0.60;99.90
12303;DHT22;6214;48.012;7.862;2023-03-01T05:30:21;0.50;99.90
12303;DHT22;6214;48.012;7.862;2023-03-01T05:32:49;0.60;99.90
12303;DHT22;6214;48.012;7.862;2023-03-01T05:35:23;0.70;99.90
12303;DHT22;6214;48.012;7.862;2023-03-01T05:37:50;0.80;99.90
12303;DHT22;6214;48.012;7.862;2023-03-01T05:40:19;0.90;99.90
12303;DHT22;6214;48.012;7.862;2023-03-01T05:42:53;1.00;99.90
12303;DHT22;6214;48.012;7.862;2023-03-01T05:45:23;1.00;99.90
12303;DHT22;6214;48.012;7.862;2023-03-01T05:47:50;0.90;99.90
12303;DHT22;6214;48.012;7.862;2023-03-01T05:50:28;1.00;99.90
12303;DHT22;6214;48.012;7.862;2023-03-01T05:53:04;0.90;99.90
12303;DHT22;6214;48.012;7.862;2023-03-01T05:55:32;0.70;99.90
12303;DHT22;6214;48.012;7.862;2023-03-01T05:58:06;0.80;99.90
12303;DHT22;6214;48.012;7.862;2023-03-01T06:00:34;1.00;99.90
12303;DHT22;6214;48.012;7.862;2023-03-01T06:03:02;0.90;99.90
12303;DHT22;6214;48.012;7.862;2023-03-01T06:05:29;0.70;99.90
12303;DHT22;6214;48.012;7.862;2023-03-01T06:07:59;0.90;99.90
12303;DHT22;6214;48.012;7.862;2023-03-01T06:10:26;1.00;99.90
12303;DHT22;6214;48.012;7.862;2023-03-01T06:12:54;0.90;99.90
12303;DHT22;6214;48.012;7.862;2023-03-01T06:15:22;0.80;99.90
12303;DHT22;6214;48.012;7.862;2023-03-01T06:17:50;0.70;99.90
12303;DHT22;6214;48.012;7.862;2023-03-01T06:20:22;0.70;99.90
12303;DHT22;6214;48.012;7.862;2023-03-01T06:22:50;0.40;99.90
12303;DHT22;6214;48.012;7.862;2023-03-01T06:25:20;0.40;99.90
12303;DHT22;6214;48.012;7.862;2023-03-01T06:27:47;0.50;99.90
12303;DHT22;6214;48.012;7.862;2023-03-01T06:30:17;0.70;99.90
12303;DHT22;6214;48.012;7.862;2023-03-01T06:32:44;0.70;99.90
12303;DHT22;6214;48.012;7.862;2023-03-01T06:35:13;0.90;99.90
12303;DHT22;6214;48.012;7.862;2023-03-01T06:37:40;0.80;99.90
12303;DHT22;6214;48.012;7.862;2023-03-01T06:40:09;0.70;99.90
12303;DHT22;6214;48.012;7.862;2023-03-01T06:42:39;0.80;99.90
12303;DHT22;6214;48.012;7.862;2023-03-01T06:45:08;0.70;99.90
12303;DHT22;6214;48.012;7.862;2023-03-01T06:47:35;0.80;99.90
12303;DHT22;6214;48.012;7.862;2023-03-01T06:50:03;0.90;99.90
12303;DHT22;6214;48.012;7.862;2023-03-01T06:52:30;0.70;99.90
12303;DHT22;6214;48.012;7.862;2023-03-01T06:54:57;0.50;99.90
12303;DHT22;6214;48.012;7.862;2023-03-01T06:57:24;0.50;99.90
12303;DHT22;6214;48.012;7.862;2023-03-01T06:59:51;0.50;99.90
12303;DHT22;6214;48.012;7.862;2023-03-01T07:02:18;0.50;99.90
12303;DHT22;6214;48.012;7.862;2023-03-01T07:04:45;0.50;99.90
12303;DHT22;6214;48.012;7.862;2023-03-01T07:07:12;0.60;99.90
12303;DHT22;6214;48.012;7.862;2023-03-01T07:09:39;0.60;99.90
12303;DHT22;6214;48.012;7.862;2023-03-01T07:12:07;0.60;99.90
12303;DHT22;6214;48.012;7.862;2023-03-01T07:14:34;0.70;99.90
12303;DHT22;6214;48.012;7.862;2023-03-01T07:17:01;0.70;99.90
12303;DHT22;6214;48.012;7.862;2023-03-01T07:19:28;0.90;99.90
12303;DHT22;6214;48.012;7.862;2023-03-01T07:21:56;0.70;99.90
12303;DHT22;6214;48.012;7.862;2023-03-01T07:24:23;1.00;99.90
12303;DHT22;6214;48.012;7.862;2023-03-01T07:26:51;1.20;99.90
12303;DHT22;6214;48.012;7.862;2023-03-01T07:29:18;1.20;99.90
12303;DHT22;6214;48.012;7.862;2023-03-01T07:31:45;1.40;99.90
12303;DHT22;6214;48.012;7.862;2023-03-01T07:34:12;1.60;99.90
12303;DHT22;6214;48.012;7.862;2023-03-01T07:36:39;1.60;99.90
12303;DHT22;6214;48.012;7.862;2023-03-01T07:39:10;1.30;99.90
12303;DHT22;6214;48.012;7.862;2023-03-01T07:41:37;1.20;99.90
12303;DHT22;6214;48.012;7.862;2023-03-01T07:44:04;1.30;99.90
12303;DHT22;6214;48.012;7.862;2023-03-01T07:46:32;1.50;99.90
12303;DHT22;6214;48.012;7.862;2023-03-01T07:48:59;1.50;99.90
12303;DHT22;6214;48.012;7.862;2023-03-01T07:51:26;1.60;99.90
12303;DHT22;6214;48.012;7.862;2023-03-01T07:53:53;1.80;99.90
12303;DHT22;6214;48.012;7.862;2023-03-01T07:56:20;1.80;99.90
12303;DHT22;6214;48.012;7.862;2023-03-01T07:58:48;1.80;99.90
12303;DHT22;6214;48.012;7.862;2023-03-01T08:01:19;1.80;99.90
12303;DHT22;6214;48.012;7.862;2023-03-01T08:03:46;2.00;99.90
12303;DHT22;6214;48.012;7.862;2023-03-01T08:06:16;2.10;99.90
12303;DHT22;6214;48.012;7.862;2023-03-01T08:08:44;1.90;99.90
12303;DHT22;6214;48.012;7.862;2023-03-01T08:11:13;1.70;99.90
12303;DHT22;6214;48.012;7.862;2023-03-01T08:13:41;1.90;99.90
12303;DHT22;6214;48.012;7.862;2023-03-01T08:16:14;1.90;99.90
12303;DHT22;6214;48.012;7.862;2023-03-01T08:18:42;1.80;99.90
12303;DHT22;6214;48.012;7.862;2023-03-01T08:21:11;2.00;99.90
12303;DHT22;6214;48.012;7.862;2023-03-01T08:23:39;1.90;99.90
12303;DHT22;6214;48.012;7.862;2023-03-01T08:26:12;2.00;99.90
12303;DHT22;6214;48.012;7.862;2023-03-01T08:28:40;2.40;99.90
12303;DHT22;6214;48.012;7.862;2023-03-01T08:31:32;2.40;99.90
12303;DHT22;6214;48.012;7.862;2023-03-01T08:34:01;2.50;99.90
12303;DHT22;6214;48.012;7.862;2023-03-01T08:36:32;2.30;99.90
12303;DHT22;6214;48.012;7.862;2023-03-01T08:39:00;2.50;99.90
12303;DHT22;6214;48.012;7.862;2023-03-01T08:41:27;2.50;99.90
12303;DHT22;6214;48.012;7.862;2023-03-01T08:43:54;2.40;99.90
12303;DHT22;6214;48.012;7.862;2023-03-01T08:46:39;2.50;99.90
12303;DHT22;6214;48.012;7.862;2023-03-01T08:49:13;2.70;99.90
12303;DHT22;6214;48.012;7.862;2023-03-01T08:51:42;2.80;99.90
12303;DHT22;6214;48.012;7.862;2023-03-01T08:54:13;2.80;99.90
12303;DHT22;6214;48.012;7.862;2023-03-01T08:56:42;3.00;99.90
12303;DHT22;6214;48.012;7.862;2023-03-01T08:59:12;3.20;99.90
12303;DHT22;6214;48.012;7.862;2023-03-01T09:01:40;3.30;99.90
12303;DHT22;6214;48.012;7.862;2023-03-01T09:04:14;3.40;99.90
12303;DHT22;6214;48.012;7.862;2023-03-01T09:06:41;3.50;99.90
12303;DHT22;6214;48.012;7.862;2023-03-01T09:09:16;3.60;99.90
12303;DHT22;6214;48.012;7.862;2023-03-01T09:11:45;3.70;99.90
12303;DHT22;6214;48.012;7.862;2023-03-01T09:14:16;4.10;99.90
12303;DHT22;6214;48.012;7.862;2023-03-01T09:16:43;4.20;99.90
12303;DHT22;6214;48.012;7.862;2023-03-01T09:19:12;4.00;99.90
12303;DHT22;6214;48.012;7.862;2023-03-01T09:21:39;4.00;99.90
12303;DHT22;6214;48.012;7.862;2023-03-01T09:24:13;4.20;99.90
12303;DHT22;6214;48.012;7.862;2023-03-01T09:26:40;4.40;99.90
12303;DHT22;6214;48.012;7.862;2023-03-01T09:29:07;4.40;99.90
12303;DHT22;6214;48.012;7.862;2023-03-01T09:31:36;4.40;99.90
12303;DHT22;6214;48.012;7.862;2023-03-01T09:34:04;4.80;99.90
12303;DHT22;6214;48.012;7.862;2023-03-01T09:36:31;5.10;99.90
12303;DHT22;6214;48.012;7.862;2023-03-01T09:39:00;5.40;99.90
12303;DHT22;6214;48.012;7.862;2023-03-01T09:46:45;5.40;99.90
12303;DHT22;6214;48.012;7.862;2023-03-01T09:49:16;4.80;99.90
12303;DHT22;6214;48.012;7.862;2023-03-01T09:51:59;4.70;99.90
12303;DHT22;6214;48.012;7.862;2023-03-01T09:54:26;5.00;99.90
12303;DHT22;6214;48.012;7.862;2023-03-01T09:59:49;5.30;99.90
12303;DHT22;6214;48.012;7.862;2023-03-01T10:08:02;5.30;99.90
12303;DHT22;6214;48.012;7.862;2023-03-01T10:10:36;5.20;99.90
12303;DHT22;6214;48.012;7.862;2023-03-01T10:13:19;5.40;99.90
12303;DHT22;6214;48.012;7.862;2023-03-01T10:15:59;5.30;99.90
12303;DHT22;6214;48.012;7.862;2023-03-01T10:18:30;5.30;99.90
12303;DHT22;6214;48.012;7.862;2023-03-01T10:21:00;5.10;99.90
12303;DHT22;6214;48.012;7.862;2023-03-01T10:23:30;5.30;99.90
12303;DHT22;6214;48.012;7.862;2023-03-01T10:26:07;5.50;99.90
12303;DHT22;6214;48.012;7.862;2023-03-01T10:31:26;5.30;99.90
12303;DHT22;6214;48.012;7.862;2023-03-01T10:33:56;5.40;99.90
12303;DHT22;6214;48.012;7.862;2023-03-01T10:36:24;5.80;99.90
12303;DHT22;6214;48.012;7.862;2023-03-01T10:38:56;6.40;99.90
12303;DHT22;6214;48.012;7.862;2023-03-01T10:41:26;6.50;99.90
12303;DHT22;6214;48.012;7.862;2023-03-01T10:43:56;6.40;99.90
12303;DHT22;6214;48.012;7.862;2023-03-01T10:46:32;6.40;99.90
12303;DHT22;6214;48.012;7.862;2023-03-01T10:49:22;6.30;99.90
12303;DHT22;6214;48.012;7.862;2023-03-01T10:51:51;6.40;99.90
12303;DHT22;6214;48.012;7.862;2023-03-01T10:54:29;6.70;99.90
12303;DHT22;6214;48.012;7.862;2023-03-01T10:57:02;7.10;99.90
12303;DHT22;6214;48.012;7.862;2023-03-01T10:59:38;6.60;99.90
12303;DHT22;6214;48.012;7.862;2023-03-01T11:02:28;6.50;99.90
12303;DHT22;6214;48.012;7.862;2023-03-01T11:05:02;6.30;99.90
12303;DHT22;6214;48.012;7.862;2023-03-01T11:07:29;6.20;99.90
12303;DHT22;6214;48.012;7.862;2023-03-01T11:09:56;6.20;99.90
12303;DHT22;6214;48.012;7.862;2023-03-01T11:12:24;6.20;99.90
12303;DHT22;6214;48.012;7.862;2023-03-01T11:14:55;6.10;99.90
12303;DHT22;6214;48.012;7.862;2023-03-01T11:17:30;6.30;99.90
12303;DHT22;6214;48.012;7.862;2023-03-01T11:22:55;6.70;99.90
12303;DHT22;6214;48.012;7.862;2023-03-01T11:25:37;6.90;99.90
12303;DHT22;6214;48.012;7.862;2023-03-01T11:28:06;6.80;99.90
12303;DHT22;6214;48.012;7.862;2023-03-01T11:39:23;7.80;99.90
12303;DHT22;6214;48.012;7.862;2023-03-01T11:42:20;8.00;99.90
12303;DHT22;6214;48.012;7.862;2023-03-01T11:44:48;8.00;99.90
12303;DHT22;6214;48.012;7.862;2023-03-01T11:52:54;9.00;99.90
12303;DHT22;6214;48.012;7.862;2023-03-01T11:55:28;9.20;99.90
12303;DHT22;6214;48.012;7.862;2023-03-01T11:58:35;9.20;99.90
12303;DHT22;6214;48.012;7.862;2023-03-01T12:01:27;8.90;99.90
12303;DHT22;6214;48.012;7.862;2023-03-01T12:07:01;8.60;99.90
12303;DHT22;6214;48.012;7.862;2023-03-01T12:09:57;8.40;99.90
12303;DHT22;6214;48.012;7.862;2023-03-01T12:12:34;7.40;99.90
12303;DHT22;6214;48.012;7.862;2023-03-01T12:15:28;8.50;99.90
12303;DHT22;6214;48.012;7.862;2023-03-01T12:20:58;8.50;99.90
12303;DHT22;6214;48.012;7.862;2023-03-01T12:26:27;9.10;99.90
12303;DHT22;6214;48.012;7.862;2023-03-01T12:34:53;9.50;99.90
12303;DHT22;6214;48.012;7.862;2023-03-01T12:50:37;9.70;99.90
12303;DHT22;6214;48.012;7.862;2023-03-01T12:53:07;9.30;99.90
12303;DHT22;6214;48.012;7.862;2023-03-01T12:55:42;8.80;99.90
12303;DHT22;6214;48.012;7.862;2023-03-01T12:58:24;8.80;99.90
12303;DHT22;6214;48.012;7.862;2023-03-01T13:01:19;9.00;99.90
12303;DHT22;6214;48.012;7.862;2023-03-01T13:04:16;8.70;99.90
12303;DHT22;6214;48.012;7.862;2023-03-01T13:12:53;8.40;99.90
12303;DHT22;6214;48.012;7.862;2023-03-01T13:15:29;8.20;99.90
12303;DHT22;6214;48.012;7.862;2023-03-01T13:31:06;8.90;99.90
12303;DHT22;6214;48.012;7.862;2023-03-01T13:38:57;9.20;99.90
12303;DHT22;6214;48.012;7.862;2023-03-01T13:41:51;8.80;99.90
12303;DHT22;6214;48.012;7.862;2023-03-01T13:44:34;8.80;99.90
12303;DHT22;6214;48.012;7.862;2023-03-01T13:49:48;8.60;99.90
12303;DHT22;6214;48.012;7.862;2023-03-01T13:52:43;8.80;99.90
12303;DHT22;6214;48.012;7.862;2023-03-01T13:57:45;9.10;99.90
12303;DHT22;6214;48.012;7.862;2023-03-01T14:05:43;9.10;99.90
12303;DHT22;6214;48.012;7.862;2023-03-01T14:08:22;9.10;99.90
12303;DHT22;6214;48.012;7.862;2023-03-01T14:19:21;9.10;99.90
12303;DHT22;6214;48.012;7.862;2023-03-01T14:25:28;8.90;99.90
12303;DHT22;6214;48.012;7.862;2023-03-01T14:28:17;8.70;99.90
12303;DHT22;6214;48.012;7.862;2023-03-01T14:30:47;8.70;99.90
12303;DHT22;6214;48.012;7.862;2023-03-01T14:33:21;8.90;99.90
12303;DHT22;6214;48.012;7.862;2023-03-01T14:36:07;8.80;99.90
12303;DHT22;6214;48.012;7.862;2023-03-01T14:38:42;8.80;99.90
12303;DHT22;6214;48.012;7.862;2023-03-01T14:41:21;8.90;99.90
12303;DHT22;6214;48.012;7.862;2023-03-01T14:49:06;9.20;99.90
12303;DHT22;6214;48.012;7.862;2023-03-01T14:51:41;9.20;99.90
12303;DHT22;6214;48.012;7.862;2023-03-01T14:56:51;9.20;99.90
12303;DHT22;6214;48.012;7.862;2023-03-01T14:59:22;9.20;99.90
12303;DHT22;6214;48.012;7.862;2023-03-01T15:01:55;9.00;99.90
12303;DHT22;6214;48.012;7.862;2023-03-01T15:04:24;9.00;99.90
12303;DHT22;6214;48.012;7.862;2023-03-01T15:06:54;9.10;99.90
12303;DHT22;6214;48.012;7.862;2023-03-01T15:09:22;9.00;99.90
12303;DHT22;6214;48.012;7.862;2023-03-01T15:11:49;9.30;99.90
12303;DHT22;6214;48.012;7.862;2023-03-01T15:14:39;9.10;99.90
12303;DHT22;6214;48.012;7.862;2023-03-01T15:17:32;9.00;99.90
12303;DHT22;6214;48.012;7.862;2023-03-01T15:20:01;8.90;99.90
12303;DHT22;6214;48.012;7.862;2023-03-01T15:22:29;9.10;99.90
12303;DHT22;6214;48.012;7.862;2023-03-01T15:24:56;9.00;99.90
12303;DHT22;6214;48.012;7.862;2023-03-01T15:27:25;9.10;99.90
12303;DHT22;6214;48.012;7.862;2023-03-01T15:30:00;9.10;99.90
12303;DHT22;6214;48.012;7.862;2023-03-01T15:32:36;9.00;99.90
12303;DHT22;6214;48.012;7.862;2023-03-01T15:35:41;8.80;99.90
12303;DHT22;6214;48.012;7.862;2023-03-01T15:41:03;8.80;99.90
12303;DHT22;6214;48.012;7.862;2023-03-01T15:46:29;8.70;99.90
12303;DHT22;6214;48.012;7.862;2023-03-01T15:49:04;8.70;99.90
12303;DHT22;6214;48.012;7.862;2023-03-01T15:51:34;8.70;99.90
12303;DHT22;6214;48.012;7.862;2023-03-01T15:54:38;8.70;99.90
12303;DHT22;6214;48.012;7.862;2023-03-01T15:56:57;8.70;99.90
12303;DHT22;6214;48.012;7.862;2023-03-01T15:59:24;8.70;99.90
12303;DHT22;6214;48.012;7.862;2023-03-01T16:01:51;8.70;99.90
12303;DHT22;6214;48.012;7.862;2023-03-01T16:04:19;8.60;99.90
12303;DHT22;6214;48.012;7.862;2023-03-01T16:06:51;8.50;99.90
12303;DHT22;6214;48.012;7.862;2023-03-01T16:09:25;8.60;99.90
12303;DHT22;6214;48.012;7.862;2023-03-01T16:11:53;8.40;99.90
12303;DHT22;6214;48.012;7.862;2023-03-01T16:14:21;8.30;99.90
12303;DHT22;6214;48.012;7.862;2023-03-01T16:16:49;8.20;99.90
12303;DHT22;6214;48.012;7.862;2023-03-01T16:19:16;8.20;99.90
12303;DHT22;6214;48.012;7.862;2023-03-01T16:21:43;8.20;99.90
12303;DHT22;6214;48.012;7.862;2023-03-01T16:24:13;8.20;99.90
12303;DHT22;6214;48.012;7.862;2023-03-01T16:26:40;8.30;99.90
12303;DHT22;6214;48.012;7.862;2023-03-01T16:29:08;8.30;99.90
12303;DHT22;6214;48.012;7.862;2023-03-01T16:31:36;8.30;99.90
12303;DHT22;6214;48.012;7.862;2023-03-01T16:34:03;8.30;99.90
12303;DHT22;6214;48.012;7.862;2023-03-01T16:36:30;8.30;99.90
12303;DHT22;6214;48.012;7.862;2023-03-01T16:39:00;8.30;99.90
12303;DHT22;6214;48.012;7.862;2023-03-01T16:41:27;8.20;99.90
12303;DHT22;6214;48.012;7.862;2023-03-01T16:43:55;8.20;99.90
12303;DHT22;6214;48.012;7.862;2023-03-01T16:46:27;8.20;99.90
12303;DHT22;6214;48.012;7.862;2023-03-01T16:48:57;8.00;99.90
12303;DHT22;6214;48.012;7.862;2023-03-01T16:51:24;8.00;99.90
12303;DHT22;6214;48.012;7.862;2023-03-01T16:53:52;7.80;99.90
12303;DHT22;6214;48.012;7.862;2023-03-01T16:56:19;7.60;99.90
12303;DHT22;6214;48.012;7.862;2023-03-01T16:58:47;7.60;99.90
12303;DHT22;6214;48.012;7.862;2023-03-01T17:01:17;7.60;99.90
12303;DHT22;6214;48.012;7.862;2023-03-01T17:03:45;7.70;99.90
12303;DHT22;6214;48.012;7.862;2023-03-01T17:06:19;7.70;99.90
12303;DHT22;6214;48.012;7.862;2023-03-01T17:08:47;7.70;99.90
12303;DHT22;6214;48.012;7.862;2023-03-01T17:11:18;7.80;99.90
12303;DHT22;6214;48.012;7.862;2023-03-01T17:13:46;7.80;99.90
12303;DHT22;6214;48.012;7.862;2023-03-01T17:16:15;7.70;99.90
12303;DHT22;6214;48.012;7.862;2023-03-01T17:18:43;7.80;99.90
12303;DHT22;6214;48.012;7.862;2023-03-01T17:21:10;7.80;99.90
12303;DHT22;6214;48.012;7.862;2023-03-01T17:23:38;7.80;99.90
12303;DHT22;6214;48.012;7.862;2023-03-01T17:26:06;7.80;99.90
12303;DHT22;6214;48.012;7.862;2023-03-01T17:28:34;7.80;99.90
12303;DHT22;6214;48.012;7.862;2023-03-01T17:31:03;7.80;99.90
12303;DHT22;6214;48.012;7.862;2023-03-01T17:33:30;7.80;99.90
12303;DHT22;6214;48.012;7.862;2023-03-01T17:35:58;7.80;99.90
12303;DHT22;6214;48.012;7.862;2023-03-01T17:38:26;7.70;99.90
12303;DHT22;6214;48.012;7.862;2023-03-01T17:40:53;7.60;99.90
12303;DHT22;6214;48.012;7.862;2023-03-01T17:43:20;7.70;99.90
12303;DHT22;6214;48.012;7.862;2023-03-01T17:45:47;7.70;99.90
12303;DHT22;6214;48.012;7.862;2023-03-01T17:48:16;7.60;99.90
12303;DHT22;6214;48.012;7.862;2023-03-01T17:50:44;7.40;99.90
12303;DHT22;6214;48.012;7.862;2023-03-01T17:53:11;7.30;99.90
12303;DHT22;6214;48.012;7.862;2023-03-01T17:55:40;7.30;99.90
12303;DHT22;6214;48.012;7.862;2023-03-01T17:58:09;7.20;99.90
12303;DHT22;6214;48.012;7.862;2023-03-01T18:00:36;7.10;99.90
12303;DHT22;6214;48.012;7.862;2023-03-01T18:03:04;7.10;99.90
12303;DHT22;6214;48.012;7.862;2023-03-01T18:05:32;7.00;99.90
12303;DHT22;6214;48.012;7.862;2023-03-01T18:07:59;7.00;99.90
12303;DHT22;6214;48.012;7.862;2023-03-01T18:10:26;7.00;99.90
12303;DHT22;6214;48.012;7.862;2023-03-01T18:12:53;7.00;99.90
12303;DHT22;6214;48.012;7.862;2023-03-01T18:15:20;7.00;99.90
12303;DHT22;6214;48.012;7.862;2023-03-01T18:17:47;7.00;99.90
12303;DHT22;6214;48.012;7.862;2023-03-01T18:20:14;6.80;99.90
12303;DHT22;6214;48.012;7.862;2023-03-01T18:22:43;6.70;99.90
12303;DHT22;6214;48.012;7.862;2023-03-01T18:25:12;6.60;99.90
12303;DHT22;6214;48.012;7.862;2023-03-01T18:27:39;6.60;99.90
12303;DHT22;6214;48.012;7.862;2023-03-01T18:30:07;6.70;99.90
12303;DHT22;6214;48.012;7.862;2023-03-01T18:32:36;6.70;99.90
12303;DHT22;6214;48.012;7.862;2023-03-01T18:35:06;6.70;99.90
12303;DHT22;6214;48.012;7.862;2023-03-01T18:37:33;6.70;99.90